sensor_id;sensor_type;location;lat;lon;timestamp;P1;durP1;ratioP1;P2;durP2;ratioP2
48987;SDS011;34799;51.440;-2.534;2023-02-05T00:01:31;19.35;;;3.80;;
48987;SDS011;34799;51.440;-2.534;2023-02-05T00:03:58;16.98;;;3.65;;
48987;SDS011;34799;51.440;-2.534;2023-02-05T00:06:26;20.88;;;3.47;;
48987;SDS011;34799;51.440;-2.534;2023-02-05T00:08:55;22.25;;;4.05;;
48987;SDS011;34799;51.440;-2.534;2023-02-05T00:11:23;14.32;;;3.00;;
48987;SDS011;34799;51.440;-2.534;2023-02-05T00:13:51;21.02;;;3.47;;
48987;SDS011;34799;51.440;-2.534;2023-02-05T00:16:21;16.00;;;3.33;;
48987;SDS011;34799;51.440;-2.534;2023-02-05T00:18:50;20.50;;;4.45;;
48987;SDS011;34799;51.440;-2.534;2023-02-05T00:21:18;20.13;;;4.20;;
48987;SDS011;34799;51.440;-2.534;2023-02-05T00:23:47;15.93;;;4.82;;
48987;SDS011;34799;51.440;-2.534;2023-02-05T00:26:15;14.95;;;4.32;;
48987;SDS011;34799;51.440;-2.534;2023-02-05T00:28:42;13.98;;;3.83;;
48987;SDS011;34799;51.440;-2.534;2023-02-05T00:31:11;8.18;;;1.98;;
48987;SDS011;34799;51.440;-2.534;2023-02-05T00:33:41;5.57;;;1.23;;
48987;SDS011;34799;51.440;-2.534;2023-02-05T00:36:09;4.68;;;1.00;;
48987;SDS011;34799;51.440;-2.534;2023-02-05T00:38:38;7.88;;;2.13;;
48987;SDS011;34799;51.440;-2.534;2023-02-05T00:41:07;6.65;;;1.20;;
48987;SDS011;34799;51.440;-2.534;2023-02-05T00:43:36;6.95;;;1.35;;
48987;SDS011;34799;51.440;-2.534;2023-02-05T00:46:04;7.38;;;1.00;;
48987;SDS011;34799;51.440;-2.534;2023-02-05T00:48:32;7.40;;;1.42;;
48987;SDS011;34799;51.440;-2.534;2023-02-05T00:51:00;9.15;;;1.02;;
48987;SDS011;34799;51.440;-2.534;2023-02-05T00:53:27;13.80;;;2.20;;
48987;SDS011;34799;51.440;-2.534;2023-02-05T00:55:54;9.48;;;2.13;;
48987;SDS011;34799;51.440;-2.534;2023-02-05T00:58:21;8.77;;;2.08;;
48987;SDS011;34799;51.440;-2.534;2023-02-05T01:00:49;8.07;;;1.58;;
48987;SDS011;34799;51.440;-2.534;2023-02-05T01:03:18;6.22;;;1.20;;
48987;SDS011;34799;51.440;-2.534;2023-02-05T01:05:46;10.18;;;2.17;;
48987;SDS011;34799;51.440;-2.534;2023-02-05T01:08:13;9.55;;;1.85;;
48987;SDS011;34799;51.440;-2.534;2023-02-05T01:10:45;7.53;;;1.00;;
48987;SDS011;34799;51.440;-2.534;2023-02-05T01:13:14;5.35;;;1.02;;
48987;SDS011;34799;51.440;-2.534;2023-02-05T01:15:44;4.57;;;0.90;;
48987;SDS011;34799;51.440;-2.534;2023-02-05T01:18:11;5.80;;;0.73;;
48987;SDS011;34799;51.440;-2.534;2023-02-05T01:20:39;4.43;;;0.80;;
48987;SDS011;34799;51.440;-2.534;2023-02-05T01:23:07;6.65;;;0.88;;
48987;SDS011;34799;51.440;-2.534;2023-02-05T01:25:36;9.95;;;0.70;;
48987;SDS011;34799;51.440;-2.534;2023-02-05T01:28:04;6.97;;;0.65;;
48987;SDS011;34799;51.440;-2.534;2023-02-05T01:30:32;5.15;;;0.95;;
48987;SDS011;34799;51.440;-2.534;2023-02-05T01:33:00;6.93;;;1.73;;
48987;SDS011;34799;51.440;-2.534;2023-02-05T01:35:29;5.85;;;0.80;;
48987;SDS011;34799;51.440;-2.534;2023-02-05T01:37:57;8.90;;;1.02;;
48987;SDS011;34799;51.440;-2.534;2023-02-05T01:40:24;9.13;;;1.10;;
48987;SDS011;34799;51.440;-2.534;2023-02-05T01:42:51;7.22;;;0.90;;
48987;SDS011;34799;51.440;-2.534;2023-02-05T01:47:49;8.20;;;0.70;;
48987;SDS011;34799;51.440;-2.534;2023-02-05T01:50:19;7.95;;;0.93;;
48987;SDS011;34799;51.440;-2.534;2023-02-05T01:52:53;12.60;;;1.00;;
48987;SDS011;34799;51.440;-2.534;2023-02-05T01:55:23;10.00;;;1.35;;
48987;SDS011;34799;51.440;-2.534;2023-02-05T01:57:51;8.02;;;0.85;;
48987;SDS011;34799;51.440;-2.534;2023-02-05T02:00:20;9.02;;;0.80;;
48987;SDS011;34799;51.440;-2.534;2023-02-05T02:02:49;10.00;;;0.70;;
48987;SDS011;34799;51.440;-2.534;2023-02-05T02:05:17;7.82;;;0.80;;
48987;SDS011;34799;51.440;-2.534;2023-02-05T02:07:44;7.80;;;0.70;;
48987;SDS011;34799;51.440;-2.534;2023-02-05T02:10:12;12.10;;;1.63;;
48987;SDS011;34799;51.440;-2.534;2023-02-05T02:12:42;6.43;;;1.48;;
48987;SDS011;34799;51.440;-2.534;2023-02-05T02:15:13;8.93;;;1.20;;
48987;SDS011;34799;51.440;-2.534;2023-02-05T02:17:44;6.20;;;0.70;;
48987;SDS011;34799;51.440;-2.534;2023-02-05T02:20:18;9.07;;;0.43;;
48987;SDS011;34799;51.440;-2.534;2023-02-05T02:25:46;4.82;;;0.55;;
48987;SDS011;34799;51.440;-2.534;2023-02-05T02:28:28;11.35;;;1.10;;
48987;SDS011;34799;51.440;-2.534;2023-02-05T02:31:03;7.43;;;1.23;;
48987;SDS011;34799;51.440;-2.534;2023-02-05T02:33:40;10.88;;;1.08;;
48987;SDS011;34799;51.440;-2.534;2023-02-05T02:36:16;8.32;;;0.57;;
48987;SDS011;34799;51.440;-2.534;2023-02-05T02:38:53;8.20;;;0.88;;
48987;SDS011;34799;51.440;-2.534;2023-02-05T02:41:30;11.30;;;0.90;;
48987;SDS011;34799;51.440;-2.534;2023-02-05T02:44:08;6.13;;;0.55;;
48987;SDS011;34799;51.440;-2.534;2023-02-05T02:46:46;7.35;;;0.77;;
48987;SDS011;34799;51.440;-2.534;2023-02-05T02:49:23;6.35;;;0.70;;
48987;SDS011;34799;51.440;-2.534;2023-02-05T02:52:06;9.25;;;1.20;;
48987;SDS011;34799;51.440;-2.534;2023-02-05T02:54:38;6.55;;;0.90;;
48987;SDS011;34799;51.440;-2.534;2023-02-05T02:57:07;8.40;;;1.17;;
48987;SDS011;34799;51.440;-2.534;2023-02-05T02:59:38;7.65;;;1.05;;
48987;SDS011;34799;51.440;-2.534;2023-02-05T03:02:09;6.05;;;0.75;;
48987;SDS011;34799;51.440;-2.534;2023-02-05T03:04:42;8.25;;;0.88;;
48987;SDS011;34799;51.440;-2.534;2023-02-05T03:07:16;13.05;;;1.00;;
48987;SDS011;34799;51.440;-2.534;2023-02-05T03:09:51;9.95;;;1.23;;
48987;SDS011;34799;51.440;-2.534;2023-02-05T03:12:29;7.78;;;0.75;;
48987;SDS011;34799;51.440;-2.534;2023-02-05T03:14:56;10.55;;;0.88;;
48987;SDS011;34799;51.440;-2.534;2023-02-05T03:17:25;10.80;;;1.30;;
48987;SDS011;34799;51.440;-2.534;2023-02-05T03:20:05;6.40;;;0.65;;
48987;SDS011;34799;51.440;-2.534;2023-02-05T03:22:55;11.25;;;1.30;;
48987;SDS011;34799;51.440;-2.534;2023-02-05T03:33:45;15.40;;;1.27;;
48987;SDS011;34799;51.440;-2.534;2023-02-05T04:16:40;17.23;;;1.85;;
48987;SDS011;34799;51.440;-2.534;2023-02-05T04:22:26;9.63;;;0.50;;
48987;SDS011;34799;51.440;-2.534;2023-02-05T04:25:13;12.10;;;0.93;;
48987;SDS011;34799;51.440;-2.534;2023-02-05T04:28:03;17.65;;;1.08;;
48987;SDS011;34799;51.440;-2.534;2023-02-05T04:30:32;17.48;;;1.80;;
48987;SDS011;34799;51.440;-2.534;2023-02-05T04:33:00;12.13;;;1.48;;
48987;SDS011;34799;51.440;-2.534;2023-02-05T04:35:28;9.70;;;1.35;;
48987;SDS011;34799;51.440;-2.534;2023-02-05T04:37:57;17.17;;;1.17;;
48987;SDS011;34799;51.440;-2.534;2023-02-05T04:40:25;11.15;;;1.58;;
48987;SDS011;34799;51.440;-2.534;2023-02-05T04:42:52;10.45;;;1.25;;
48987;SDS011;34799;51.440;-2.534;2023-02-05T04:45:19;10.48;;;1.05;;
48987;SDS011;34799;51.440;-2.534;2023-02-05T04:47:45;9.52;;;2.13;;
48987;SDS011;34799;51.440;-2.534;2023-02-05T04:50:14;13.32;;;0.70;;
48987;SDS011;34799;51.440;-2.534;2023-02-05T04:52:41;16.17;;;0.98;;
48987;SDS011;34799;51.440;-2.534;2023-02-05T04:55:08;11.10;;;1.00;;
48987;SDS011;34799;51.440;-2.534;2023-02-05T04:57:35;10.55;;;0.75;;
48987;SDS011;34799;51.440;-2.534;2023-02-05T05:00:03;21.63;;;1.05;;
48987;SDS011;34799;51.440;-2.534;2023-02-05T05:02:30;13.40;;;1.02;;
48987;SDS011;34799;51.440;-2.534;2023-02-05T05:04:58;14.20;;;1.25;;
48987;SDS011;34799;51.440;-2.534;2023-02-05T05:07:28;12.60;;;1.20;;
48987;SDS011;34799;51.440;-2.534;2023-02-05T05:09:56;13.10;;;1.08;;
48987;SDS011;34799;51.440;-2.534;2023-02-05T05:12:23;12.25;;;0.85;;
48987;SDS011;34799;51.440;-2.534;2023-02-05T05:14:51;10.75;;;0.98;;
48987;SDS011;34799;51.440;-2.534;2023-02-05T05:17:18;11.07;;;0.98;;
48987;SDS011;34799;51.440;-2.534;2023-02-05T05:19:45;8.88;;;1.23;;
48987;SDS011;34799;51.440;-2.534;2023-02-05T05:22:12;12.02;;;0.80;;
48987;SDS011;34799;51.440;-2.534;2023-02-05T05:24:39;8.90;;;1.08;;
48987;SDS011;34799;51.440;-2.534;2023-02-05T05:27:06;6.75;;;1.13;;
48987;SDS011;34799;51.440;-2.534;2023-02-05T05:29:33;11.75;;;1.58;;
48987;SDS011;34799;51.440;-2.534;2023-02-05T05:32:02;11.10;;;0.98;;
48987;SDS011;34799;51.440;-2.534;2023-02-05T05:34:29;6.97;;;1.20;;
48987;SDS011;34799;51.440;-2.534;2023-02-05T05:36:56;11.05;;;1.42;;
48987;SDS011;34799;51.440;-2.534;2023-02-05T05:39:23;8.57;;;1.38;;
48987;SDS011;34799;51.440;-2.534;2023-02-05T05:42:10;12.43;;;1.40;;
48987;SDS011;34799;51.440;-2.534;2023-02-05T05:44:56;9.35;;;0.90;;
48987;SDS011;34799;51.440;-2.534;2023-02-05T05:47:23;10.18;;;1.00;;
48987;SDS011;34799;51.440;-2.534;2023-02-05T05:49:51;12.20;;;1.30;;
48987;SDS011;34799;51.440;-2.534;2023-02-05T05:52:18;8.40;;;1.30;;
48987;SDS011;34799;51.440;-2.534;2023-02-05T05:54:45;11.32;;;1.52;;
48987;SDS011;34799;51.440;-2.534;2023-02-05T05:57:12;13.25;;;0.85;;
48987;SDS011;34799;51.440;-2.534;2023-02-05T05:59:40;9.23;;;0.90;;
48987;SDS011;34799;51.440;-2.534;2023-02-05T06:02:07;14.02;;;1.70;;
48987;SDS011;34799;51.440;-2.534;2023-02-05T06:04:34;6.20;;;0.75;;
48987;SDS011;34799;51.440;-2.534;2023-02-05T06:07:01;8.27;;;0.98;;
48987;SDS011;34799;51.440;-2.534;2023-02-05T06:09:28;9.40;;;1.05;;
48987;SDS011;34799;51.440;-2.534;2023-02-05T06:11:55;14.55;;;1.52;;
48987;SDS011;34799;51.440;-2.534;2023-02-05T06:14:22;11.10;;;1.00;;
48987;SDS011;34799;51.440;-2.534;2023-02-05T06:16:50;10.55;;;2.50;;
48987;SDS011;34799;51.440;-2.534;2023-02-05T06:19:21;11.15;;;0.80;;
48987;SDS011;34799;51.440;-2.534;2023-02-05T06:21:49;14.18;;;0.88;;
48987;SDS011;34799;51.440;-2.534;2023-02-05T06:24:17;9.80;;;1.13;;
48987;SDS011;34799;51.440;-2.534;2023-02-05T06:26:44;10.88;;;0.82;;
48987;SDS011;34799;51.440;-2.534;2023-02-05T06:29:11;14.25;;;1.90;;
48987;SDS011;34799;51.440;-2.534;2023-02-05T06:31:38;9.65;;;0.82;;
48987;SDS011;34799;51.440;-2.534;2023-02-05T06:34:06;13.80;;;1.02;;
48987;SDS011;34799;51.440;-2.534;2023-02-05T06:36:33;10.07;;;1.60;;
48987;SDS011;34799;51.440;-2.534;2023-02-05T06:39:00;7.47;;;1.10;;
48987;SDS011;34799;51.440;-2.534;2023-02-05T06:41:27;9.95;;;0.70;;
48987;SDS011;34799;51.440;-2.534;2023-02-05T06:43:55;7.57;;;0.60;;
48987;SDS011;34799;51.440;-2.534;2023-02-05T06:46:22;8.57;;;0.68;;
48987;SDS011;34799;51.440;-2.534;2023-02-05T06:48:49;9.30;;;0.95;;
48987;SDS011;34799;51.440;-2.534;2023-02-05T06:51:16;8.90;;;1.67;;
48987;SDS011;34799;51.440;-2.534;2023-02-05T06:53:42;10.38;;;1.13;;
48987;SDS011;34799;51.440;-2.534;2023-02-05T06:56:10;12.52;;;0.93;;
48987;SDS011;34799;51.440;-2.534;2023-02-05T06:58:38;8.88;;;0.70;;
48987;SDS011;34799;51.440;-2.534;2023-02-05T07:01:05;10.07;;;1.23;;
48987;SDS011;34799;51.440;-2.534;2023-02-05T07:03:32;9.25;;;1.02;;
48987;SDS011;34799;51.440;-2.534;2023-02-05T07:06:02;9.95;;;1.33;;
48987;SDS011;34799;51.440;-2.534;2023-02-05T07:08:31;4.68;;;0.80;;
48987;SDS011;34799;51.440;-2.534;2023-02-05T07:10:59;17.00;;;1.33;;
48987;SDS011;34799;51.440;-2.534;2023-02-05T07:13:27;11.02;;;1.10;;
48987;SDS011;34799;51.440;-2.534;2023-02-05T07:15:57;12.45;;;0.73;;
48987;SDS011;34799;51.440;-2.534;2023-02-05T07:18:28;8.95;;;1.00;;
48987;SDS011;34799;51.440;-2.534;2023-02-05T07:20:56;11.50;;;1.30;;
48987;SDS011;34799;51.440;-2.534;2023-02-05T07:23:23;12.20;;;0.65;;
48987;SDS011;34799;51.440;-2.534;2023-02-05T07:25:51;15.77;;;1.60;;
48987;SDS011;34799;51.440;-2.534;2023-02-05T07:28:18;14.93;;;1.65;;
48987;SDS011;34799;51.440;-2.534;2023-02-05T07:30:45;13.18;;;1.50;;
48987;SDS011;34799;51.440;-2.534;2023-02-05T07:33:13;13.98;;;0.82;;
48987;SDS011;34799;51.440;-2.534;2023-02-05T07:35:42;15.85;;;1.08;;
48987;SDS011;34799;51.440;-2.534;2023-02-05T07:38:09;7.47;;;0.80;;
48987;SDS011;34799;51.440;-2.534;2023-02-05T07:40:36;11.55;;;0.75;;
48987;SDS011;34799;51.440;-2.534;2023-02-05T07:43:03;12.32;;;1.17;;
48987;SDS011;34799;51.440;-2.534;2023-02-05T07:45:30;13.32;;;1.25;;
48987;SDS011;34799;51.440;-2.534;2023-02-05T07:47:58;15.73;;;1.77;;
48987;SDS011;34799;51.440;-2.534;2023-02-05T07:50:26;31.92;;;2.30;;
48987;SDS011;34799;51.440;-2.534;2023-02-05T07:52:53;14.93;;;1.67;;
48987;SDS011;34799;51.440;-2.534;2023-02-05T07:55:20;15.77;;;1.17;;
48987;SDS011;34799;51.440;-2.534;2023-02-05T07:57:47;15.05;;;1.23;;
48987;SDS011;34799;51.440;-2.534;2023-02-05T08:00:14;11.93;;;1.15;;
48987;SDS011;34799;51.440;-2.534;2023-02-05T08:02:41;13.93;;;0.80;;
48987;SDS011;34799;51.440;-2.534;2023-02-05T08:05:08;16.60;;;2.28;;
48987;SDS011;34799;51.440;-2.534;2023-02-05T08:07:36;14.52;;;1.25;;
48987;SDS011;34799;51.440;-2.534;2023-02-05T08:10:04;17.05;;;2.00;;
48987;SDS011;34799;51.440;-2.534;2023-02-05T08:12:31;15.35;;;1.08;;
48987;SDS011;34799;51.440;-2.534;2023-02-05T08:14:58;7.85;;;1.10;;
48987;SDS011;34799;51.440;-2.534;2023-02-05T08:17:25;9.27;;;0.93;;
48987;SDS011;34799;51.440;-2.534;2023-02-05T08:19:53;10.27;;;1.00;;
48987;SDS011;34799;51.440;-2.534;2023-02-05T08:22:21;11.40;;;1.65;;
48987;SDS011;34799;51.440;-2.534;2023-02-05T08:24:48;12.43;;;0.95;;
48987;SDS011;34799;51.440;-2.534;2023-02-05T08:27:15;13.52;;;1.38;;
48987;SDS011;34799;51.440;-2.534;2023-02-05T08:29:45;12.50;;;1.40;;
48987;SDS011;34799;51.440;-2.534;2023-02-05T08:32:14;15.57;;;1.73;;
48987;SDS011;34799;51.440;-2.534;2023-02-05T08:34:41;11.48;;;1.10;;
48987;SDS011;34799;51.440;-2.534;2023-02-05T08:37:08;11.95;;;1.30;;
48987;SDS011;34799;51.440;-2.534;2023-02-05T08:39:36;11.05;;;0.70;;
48987;SDS011;34799;51.440;-2.534;2023-02-05T08:42:03;10.35;;;1.27;;
48987;SDS011;34799;51.440;-2.534;2023-02-05T08:44:31;9.73;;;0.88;;
48987;SDS011;34799;51.440;-2.534;2023-02-05T08:46:58;13.98;;;1.35;;
48987;SDS011;34799;51.440;-2.534;2023-02-05T08:49:25;6.65;;;0.95;;
48987;SDS011;34799;51.440;-2.534;2023-02-05T08:51:52;14.90;;;1.65;;
48987;SDS011;34799;51.440;-2.534;2023-02-05T08:54:19;11.25;;;0.98;;
48987;SDS011;34799;51.440;-2.534;2023-02-05T08:56:48;11.18;;;0.80;;
48987;SDS011;34799;51.440;-2.534;2023-02-05T08:59:17;12.40;;;1.30;;
48987;SDS011;34799;51.440;-2.534;2023-02-05T09:01:44;9.00;;;1.50;;
48987;SDS011;34799;51.440;-2.534;2023-02-05T09:04:14;13.93;;;1.95;;
48987;SDS011;34799;51.440;-2.534;2023-02-05T09:06:44;8.93;;;2.03;;
48987;SDS011;34799;51.440;-2.534;2023-02-05T09:09:12;15.75;;;1.77;;
48987;SDS011;34799;51.440;-2.534;2023-02-05T09:11:39;8.43;;;1.70;;
48987;SDS011;34799;51.440;-2.534;2023-02-05T09:14:08;13.73;;;1.25;;
48987;SDS011;34799;51.440;-2.534;2023-02-05T09:16:35;10.82;;;1.10;;
48987;SDS011;34799;51.440;-2.534;2023-02-05T09:19:02;10.85;;;1.17;;
48987;SDS011;34799;51.440;-2.534;2023-02-05T09:21:29;6.43;;;0.70;;
48987;SDS011;34799;51.440;-2.534;2023-02-05T09:23:57;16.02;;;1.50;;
48987;SDS011;34799;51.440;-2.534;2023-02-05T09:26:24;11.55;;;1.70;;
48987;SDS011;34799;51.440;-2.534;2023-02-05T09:28:52;10.45;;;1.27;;
48987;SDS011;34799;51.440;-2.534;2023-02-05T09:31:19;14.40;;;1.27;;
48987;SDS011;34799;51.440;-2.534;2023-02-05T09:33:47;11.05;;;1.40;;
48987;SDS011;34799;51.440;-2.534;2023-02-05T09:36:15;11.13;;;1.30;;
48987;SDS011;34799;51.440;-2.534;2023-02-05T09:38:47;15.02;;;2.38;;
48987;SDS011;34799;51.440;-2.534;2023-02-05T09:41:25;13.63;;;1.83;;
48987;SDS011;34799;51.440;-2.534;2023-02-05T09:52:00;14.07;;;1.50;;
48987;SDS011;34799;51.440;-2.534;2023-02-05T09:54:32;11.50;;;1.30;;
48987;SDS011;34799;51.440;-2.534;2023-02-05T09:57:05;12.00;;;1.45;;
48987;SDS011;34799;51.440;-2.534;2023-02-05T09:59:43;10.57;;;1.23;;
48987;SDS011;34799;51.440;-2.534;2023-02-05T10:02:23;9.93;;;1.35;;
48987;SDS011;34799;51.440;-2.534;2023-02-05T10:04:56;10.27;;;1.48;;
48987;SDS011;34799;51.440;-2.534;2023-02-05T10:10:12;15.00;;;1.65;;
48987;SDS011;34799;51.440;-2.534;2023-02-05T10:12:52;8.77;;;1.10;;
48987;SDS011;34799;51.440;-2.534;2023-02-05T10:15:43;16.10;;;1.98;;
48987;SDS011;34799;51.440;-2.534;2023-02-05T10:34:58;6.20;;;0.90;;
48987;SDS011;34799;51.440;-2.534;2023-02-05T10:37:45;12.77;;;1.23;;
48987;SDS011;34799;51.440;-2.534;2023-02-05T10:40:18;9.02;;;1.05;;
48987;SDS011;34799;51.440;-2.534;2023-02-05T10:45:45;6.60;;;1.00;;
48987;SDS011;34799;51.440;-2.534;2023-02-05T10:53:26;9.10;;;1.67;;
48987;SDS011;34799;51.440;-2.534;2023-02-05T10:55:55;10.32;;;0.80;;
48987;SDS011;34799;51.440;-2.534;2023-02-05T10:58:34;11.95;;;3.70;;
48987;SDS011;34799;51.440;-2.534;2023-02-05T11:01:06;12.38;;;1.20;;
48987;SDS011;34799;51.440;-2.534;2023-02-05T11:03:44;7.88;;;0.75;;
48987;SDS011;34799;51.440;-2.534;2023-02-05T11:06:24;11.40;;;0.93;;
48987;SDS011;34799;51.440;-2.534;2023-02-05T11:08:52;11.70;;;1.20;;
48987;SDS011;34799;51.440;-2.534;2023-02-05T11:13:54;9.07;;;1.10;;
48987;SDS011;34799;51.440;-2.534;2023-02-05T11:16:37;10.27;;;1.58;;
48987;SDS011;34799;51.440;-2.534;2023-02-05T11:19:18;6.32;;;0.93;;
48987;SDS011;34799;51.440;-2.534;2023-02-05T11:21:51;8.13;;;1.08;;
48987;SDS011;34799;51.440;-2.534;2023-02-05T11:24:42;7.80;;;0.77;;
48987;SDS011;34799;51.440;-2.534;2023-02-05T11:29:58;9.93;;;2.03;;
48987;SDS011;34799;51.440;-2.534;2023-02-05T11:35:51;10.93;;;0.68;;
48987;SDS011;34799;51.440;-2.534;2023-02-05T11:38:54;12.25;;;1.80;;
48987;SDS011;34799;51.440;-2.534;2023-02-05T11:41:14;9.18;;;1.33;;
48987;SDS011;34799;51.440;-2.534;2023-02-05T11:43:56;12.00;;;1.70;;
48987;SDS011;34799;51.440;-2.534;2023-02-05T11:46:25;12.18;;;2.28;;
48987;SDS011;34799;51.440;-2.534;2023-02-05T11:48:57;6.65;;;0.70;;
48987;SDS011;34799;51.440;-2.534;2023-02-05T11:51:47;6.47;;;1.10;;
48987;SDS011;34799;51.440;-2.534;2023-02-05T11:54:23;6.18;;;0.82;;
48987;SDS011;34799;51.440;-2.534;2023-02-05T11:59:54;9.75;;;0.82;;
48987;SDS011;34799;51.440;-2.534;2023-02-05T12:02:31;8.85;;;1.02;;
48987;SDS011;34799;51.440;-2.534;2023-02-05T12:05:06;8.30;;;1.75;;
48987;SDS011;34799;51.440;-2.534;2023-02-05T12:07:41;6.60;;;0.90;;
48987;SDS011;34799;51.440;-2.534;2023-02-05T12:10:17;4.40;;;0.60;;
48987;SDS011;34799;51.440;-2.534;2023-02-05T12:15:23;10.05;;;2.08;;
48987;SDS011;34799;51.440;-2.534;2023-02-05T12:21:15;6.40;;;1.08;;
48987;SDS011;34799;51.440;-2.534;2023-02-05T12:26:43;5.53;;;0.93;;
48987;SDS011;34799;51.440;-2.534;2023-02-05T12:29:16;2.42;;;0.55;;
48987;SDS011;34799;51.440;-2.534;2023-02-05T12:40:03;9.48;;;1.55;;
48987;SDS011;34799;51.440;-2.534;2023-02-05T12:42:36;10.20;;;1.90;;
48987;SDS011;34799;51.440;-2.534;2023-02-05T12:48:04;10.85;;;1.02;;
48987;SDS011;34799;51.440;-2.534;2023-02-05T12:56:51;13.20;;;0.70;;
48987;SDS011;34799;51.440;-2.534;2023-02-05T12:59:41;6.20;;;0.57;;
48987;SDS011;34799;51.440;-2.534;2023-02-05T13:05:24;5.03;;;0.45;;
48987;SDS011;34799;51.440;-2.534;2023-02-05T13:08:01;3.75;;;0.40;;
48987;SDS011;34799;51.440;-2.534;2023-02-05T13:10:37;6.22;;;0.50;;
48987;SDS011;34799;51.440;-2.534;2023-02-05T13:13:16;10.05;;;1.65;;
48987;SDS011;34799;51.440;-2.534;2023-02-05T13:15:54;7.93;;;0.50;;
48987;SDS011;34799;51.440;-2.534;2023-02-05T13:18:28;6.13;;;0.43;;
48987;SDS011;34799;51.440;-2.534;2023-02-05T13:21:04;7.00;;;0.55;;
48987;SDS011;34799;51.440;-2.534;2023-02-05T13:24:17;4.88;;;0.65;;
48987;SDS011;34799;51.440;-2.534;2023-02-05T13:27:27;3.63;;;0.40;;
48987;SDS011;34799;51.440;-2.534;2023-02-05T13:30:21;5.93;;;0.85;;
48987;SDS011;34799;51.440;-2.534;2023-02-05T13:33:02;4.72;;;0.45;;
48987;SDS011;34799;51.440;-2.534;2023-02-05T13:35:56;7.65;;;0.95;;
48987;SDS011;34799;51.440;-2.534;2023-02-05T14:00:11;7.17;;;0.80;;
48987;SDS011;34799;51.440;-2.534;2023-02-05T14:05:08;6.90;;;0.75;;
48987;SDS011;34799;51.440;-2.534;2023-02-05T14:07:45;2.78;;;0.50;;
48987;SDS011;34799;51.440;-2.534;2023-02-05T14:13:20;8.48;;;0.50;;
48987;SDS011;34799;51.440;-2.534;2023-02-05T14:15:56;5.53;;;0.60;;
48987;SDS011;34799;51.440;-2.534;2023-02-05T14:18:45;10.07;;;1.58;;
48987;SDS011;34799;51.440;-2.534;2023-02-05T14:23:58;7.20;;;0.40;;
48987;SDS011;34799;51.440;-2.534;2023-02-05T14:26:49;7.75;;;0.40;;
48987;SDS011;34799;51.440;-2.534;2023-02-05T14:29:38;7.47;;;0.73;;
48987;SDS011;34799;51.440;-2.534;2023-02-05T14:37:44;5.70;;;0.95;;
48987;SDS011;34799;51.440;-2.534;2023-02-05T14:40:21;6.03;;;0.52;;
48987;SDS011;34799;51.440;-2.534;2023-02-05T14:42:54;7.88;;;0.80;;
48987;SDS011;34799;51.440;-2.534;2023-02-05T14:45:42;4.55;;;0.40;;
48987;SDS011;34799;51.440;-2.534;2023-02-05T14:48:23;6.93;;;0.57;;
48987;SDS011;34799;51.440;-2.534;2023-02-05T14:51:01;4.00;;;0.60;;
48987;SDS011;34799;51.440;-2.534;2023-02-05T14:53:55;6.38;;;0.32;;
48987;SDS011;34799;51.440;-2.534;2023-02-05T14:56:28;8.68;;;0.50;;
48987;SDS011;34799;51.440;-2.534;2023-02-05T14:59:18;4.85;;;0.55;;
48987;SDS011;34799;51.440;-2.534;2023-02-05T15:01:49;5.10;;;0.50;;
48987;SDS011;34799;51.440;-2.534;2023-02-05T15:06:57;5.55;;;0.80;;
48987;SDS011;34799;51.440;-2.534;2023-02-05T15:09:32;5.10;;;0.52;;
48987;SDS011;34799;51.440;-2.534;2023-02-05T15:15:22;6.03;;;0.90;;
48987;SDS011;34799;51.440;-2.534;2023-02-05T15:18:03;4.65;;;0.40;;
48987;SDS011;34799;51.440;-2.534;2023-02-05T15:20:33;7.20;;;0.70;;
48987;SDS011;34799;51.440;-2.534;2023-02-05T15:28:35;5.65;;;0.80;;
48987;SDS011;34799;51.440;-2.534;2023-02-05T15:31:08;10.27;;;0.90;;
48987;SDS011;34799;51.440;-2.534;2023-02-05T15:33:42;20.38;;;1.65;;
48987;SDS011;34799;51.440;-2.534;2023-02-05T15:36:49;5.50;;;0.90;;
48987;SDS011;34799;51.440;-2.534;2023-02-05T15:41:59;8.20;;;0.90;;
48987;SDS011;34799;51.440;-2.534;2023-02-05T15:44:30;10.70;;;0.95;;
48987;SDS011;34799;51.440;-2.534;2023-02-05T15:47:01;8.13;;;1.13;;
48987;SDS011;34799;51.440;-2.534;2023-02-05T15:49:40;4.45;;;0.50;;
48987;SDS011;34799;51.440;-2.534;2023-02-05T15:52:16;6.07;;;0.80;;
48987;SDS011;34799;51.440;-2.534;2023-02-05T15:54:49;4.30;;;1.00;;
48987;SDS011;34799;51.440;-2.534;2023-02-05T15:57:23;7.07;;;0.75;;
48987;SDS011;34799;51.440;-2.534;2023-02-05T15:59:56;7.82;;;1.55;;
48987;SDS011;34799;51.440;-2.534;2023-02-05T16:02:28;7.32;;;0.90;;
48987;SDS011;34799;51.440;-2.534;2023-02-05T16:05:00;4.63;;;0.77;;
48987;SDS011;34799;51.440;-2.534;2023-02-05T16:07:41;5.57;;;0.85;;
48987;SDS011;34799;51.440;-2.534;2023-02-05T16:10:15;7.50;;;0.82;;
48987;SDS011;34799;51.440;-2.534;2023-02-05T16:13:01;8.10;;;0.73;;
48987;SDS011;34799;51.440;-2.534;2023-02-05T16:15:47;15.07;;;1.73;;
48987;SDS011;34799;51.440;-2.534;2023-02-05T16:18:30;13.80;;;1.95;;
48987;SDS011;34799;51.440;-2.534;2023-02-05T16:21:18;6.65;;;1.13;;
48987;SDS011;34799;51.440;-2.534;2023-02-05T16:23:49;11.18;;;1.38;;
48987;SDS011;34799;51.440;-2.534;2023-02-05T16:26:34;8.05;;;1.33;;
48987;SDS011;34799;51.440;-2.534;2023-02-05T16:29:21;6.22;;;1.23;;
48987;SDS011;34799;51.440;-2.534;2023-02-05T16:32:00;11.88;;;1.35;;
48987;SDS011;34799;51.440;-2.534;2023-02-05T16:37:01;12.07;;;2.08;;
48987;SDS011;34799;51.440;-2.534;2023-02-05T16:39:41;9.70;;;1.30;;
48987;SDS011;34799;51.440;-2.534;2023-02-05T16:42:24;11.13;;;1.48;;
48987;SDS011;34799;51.440;-2.534;2023-02-05T16:45:20;7.80;;;1.45;;
48987;SDS011;34799;51.440;-2.534;2023-02-05T16:50:48;15.65;;;2.17;;
48987;SDS011;34799;51.440;-2.534;2023-02-05T16:53:20;10.82;;;1.25;;
48987;SDS011;34799;51.440;-2.534;2023-02-05T16:55:56;11.10;;;1.70;;
48987;SDS011;34799;51.440;-2.534;2023-02-05T16:58:44;12.45;;;2.72;;
48987;SDS011;34799;51.440;-2.534;2023-02-05T17:01:26;18.10;;;6.00;;
48987;SDS011;34799;51.440;-2.534;2023-02-05T17:03:55;18.23;;;4.82;;
48987;SDS011;34799;51.440;-2.534;2023-02-05T17:06:22;17.35;;;3.72;;
48987;SDS011;34799;51.440;-2.534;2023-02-05T17:08:51;19.15;;;4.53;;
48987;SDS011;34799;51.440;-2.534;2023-02-05T17:17:17;18.45;;;4.13;;
48987;SDS011;34799;51.440;-2.534;2023-02-05T17:19:43;9.45;;;2.25;;
48987;SDS011;34799;51.440;-2.534;2023-02-05T17:22:29;18.27;;;3.73;;
48987;SDS011;34799;51.440;-2.534;2023-02-05T17:24:57;57.70;;;18.27;;
48987;SDS011;34799;51.440;-2.534;2023-02-05T17:30:03;26.40;;;7.53;;
48987;SDS011;34799;51.440;-2.534;2023-02-05T17:32:36;20.92;;;7.97;;
48987;SDS011;34799;51.440;-2.534;2023-02-05T17:35:10;18.00;;;6.97;;
48987;SDS011;34799;51.440;-2.534;2023-02-05T17:37:39;16.75;;;6.25;;
48987;SDS011;34799;51.440;-2.534;2023-02-05T17:40:06;16.45;;;4.10;;
48987;SDS011;34799;51.440;-2.534;2023-02-05T17:42:34;15.25;;;3.55;;
48987;SDS011;34799;51.440;-2.534;2023-02-05T17:45:01;19.50;;;4.13;;
48987;SDS011;34799;51.440;-2.534;2023-02-05T17:47:36;14.93;;;3.70;;
48987;SDS011;34799;51.440;-2.534;2023-02-05T17:50:03;12.95;;;4.60;;
48987;SDS011;34799;51.440;-2.534;2023-02-05T17:52:30;22.88;;;6.20;;
48987;SDS011;34799;51.440;-2.534;2023-02-05T17:54:57;21.98;;;7.55;;
48987;SDS011;34799;51.440;-2.534;2023-02-05T17:57:24;15.05;;;4.95;;
48987;SDS011;34799;51.440;-2.534;2023-02-05T17:59:53;26.98;;;9.18;;
48987;SDS011;34799;51.440;-2.534;2023-02-05T18:02:22;19.92;;;7.10;;
48987;SDS011;34799;51.440;-2.534;2023-02-05T18:04:49;24.33;;;6.53;;
48987;SDS011;34799;51.440;-2.534;2023-02-05T18:07:19;23.00;;;6.70;;
48987;SDS011;34799;51.440;-2.534;2023-02-05T18:09:55;25.25;;;7.20;;
48987;SDS011;34799;51.440;-2.534;2023-02-05T18:12:24;24.35;;;9.10;;
48987;SDS011;34799;51.440;-2.534;2023-02-05T18:14:52;22.27;;;6.25;;